sensor_id;sensor_type;location;lat;lon;timestamp;P1;durP1;ratioP1;P2;durP2;ratioP2
50988;SDS011;37008;52.210;21.112;2023-01-24T00:00:50;120.10;;;43.30;;
50988;SDS011;37008;52.210;21.112;2023-01-24T00:03:16;112.38;;;43.28;;
50988;SDS011;37008;52.210;21.112;2023-01-24T00:05:43;111.10;;;43.63;;
50988;SDS011;37008;52.210;21.112;2023-01-24T00:08:10;108.35;;;42.40;;
50988;SDS011;37008;52.210;21.112;2023-01-24T00:10:37;108.28;;;44.25;;
50988;SDS011;37008;52.210;21.112;2023-01-24T00:13:03;108.50;;;41.90;;
50988;SDS011;37008;52.210;21.112;2023-01-24T00:15:29;107.20;;;42.45;;
50988;SDS011;37008;52.210;21.112;2023-01-24T00:17:55;112.05;;;43.08;;
50988;SDS011;37008;52.210;21.112;2023-01-24T00:20:21;111.53;;;42.33;;
50988;SDS011;37008;52.210;21.112;2023-01-24T00:22:46;112.22;;;42.42;;
50988;SDS011;37008;52.210;21.112;2023-01-24T00:25:12;107.78;;;38.80;;
50988;SDS011;37008;52.210;21.112;2023-01-24T00:27:37;103.15;;;41.80;;
50988;SDS011;37008;52.210;21.112;2023-01-24T00:30:03;112.32;;;42.80;;
50988;SDS011;37008;52.210;21.112;2023-01-24T00:32:30;104.57;;;41.55;;
50988;SDS011;37008;52.210;21.112;2023-01-24T00:34:57;102.38;;;41.33;;
50988;SDS011;37008;52.210;21.112;2023-01-24T00:37:23;104.95;;;42.58;;
50988;SDS011;37008;52.210;21.112;2023-01-24T00:39:48;104.70;;;41.15;;
50988;SDS011;37008;52.210;21.112;2023-01-24T00:42:14;109.53;;;41.38;;
50988;SDS011;37008;52.210;21.112;2023-01-24T00:44:40;98.75;;;39.40;;
50988;SDS011;37008;52.210;21.112;2023-01-24T00:47:05;97.22;;;41.33;;
50988;SDS011;37008;52.210;21.112;2023-01-24T00:49:31;103.85;;;41.30;;
50988;SDS011;37008;52.210;21.112;2023-01-24T00:51:56;105.05;;;42.13;;
50988;SDS011;37008;52.210;21.112;2023-01-24T00:54:22;100.20;;;42.80;;
50988;SDS011;37008;52.210;21.112;2023-01-24T00:56:47;101.97;;;41.78;;
50988;SDS011;37008;52.210;21.112;2023-01-24T00:59:13;100.22;;;40.40;;
50988;SDS011;37008;52.210;21.112;2023-01-24T01:01:39;106.65;;;42.15;;
50988;SDS011;37008;52.210;21.112;2023-01-24T01:04:04;100.97;;;40.58;;
50988;SDS011;37008;52.210;21.112;2023-01-24T01:06:30;110.55;;;42.88;;
50988;SDS011;37008;52.210;21.112;2023-01-24T01:08:56;97.20;;;40.78;;
50988;SDS011;37008;52.210;21.112;2023-01-24T01:11:22;95.53;;;41.92;;
50988;SDS011;37008;52.210;21.112;2023-01-24T01:13:48;99.53;;;40.85;;
50988;SDS011;37008;52.210;21.112;2023-01-24T01:16:15;101.15;;;42.15;;
50988;SDS011;37008;52.210;21.112;2023-01-24T01:18:44;112.03;;;42.72;;
50988;SDS011;37008;52.210;21.112;2023-01-24T01:21:14;91.65;;;41.53;;
50988;SDS011;37008;52.210;21.112;2023-01-24T01:23:41;114.78;;;42.15;;
50988;SDS011;37008;52.210;21.112;2023-01-24T01:26:08;111.32;;;43.33;;
50988;SDS011;37008;52.210;21.112;2023-01-24T01:28:37;107.05;;;42.40;;
50988;SDS011;37008;52.210;21.112;2023-01-24T01:31:03;104.78;;;42.55;;
50988;SDS011;37008;52.210;21.112;2023-01-24T01:33:29;102.13;;;42.40;;
50988;SDS011;37008;52.210;21.112;2023-01-24T01:35:54;103.95;;;41.38;;
50988;SDS011;37008;52.210;21.112;2023-01-24T01:38:20;110.93;;;43.63;;
50988;SDS011;37008;52.210;21.112;2023-01-24T01:40:46;96.20;;;39.40;;
50988;SDS011;37008;52.210;21.112;2023-01-24T01:43:12;105.53;;;41.33;;
50988;SDS011;37008;52.210;21.112;2023-01-24T01:50:46;102.40;;;43.78;;
50988;SDS011;37008;52.210;21.112;2023-01-24T01:53:23;105.90;;;43.45;;
50988;SDS011;37008;52.210;21.112;2023-01-24T01:55:55;101.63;;;41.25;;
50988;SDS011;37008;52.210;21.112;2023-01-24T01:58:33;100.55;;;43.20;;
50988;SDS011;37008;52.210;21.112;2023-01-24T02:00:59;102.57;;;40.70;;
50988;SDS011;37008;52.210;21.112;2023-01-24T02:03:29;117.03;;;45.30;;
50988;SDS011;37008;52.210;21.112;2023-01-24T02:06:03;110.35;;;45.47;;
50988;SDS011;37008;52.210;21.112;2023-01-24T02:08:40;108.90;;;43.60;;
50988;SDS011;37008;52.210;21.112;2023-01-24T02:11:08;115.15;;;46.08;;
50988;SDS011;37008;52.210;21.112;2023-01-24T02:13:53;105.05;;;42.58;;
50988;SDS011;37008;52.210;21.112;2023-01-24T02:16:39;105.18;;;42.75;;
50988;SDS011;37008;52.210;21.112;2023-01-24T02:19:05;104.18;;;42.78;;
50988;SDS011;37008;52.210;21.112;2023-01-24T02:21:36;107.10;;;41.90;;
50988;SDS011;37008;52.210;21.112;2023-01-24T02:24:03;108.68;;;44.58;;
50988;SDS011;37008;52.210;21.112;2023-01-24T02:26:38;113.97;;;46.42;;
50988;SDS011;37008;52.210;21.112;2023-01-24T02:29:09;117.57;;;43.30;;
50988;SDS011;37008;52.210;21.112;2023-01-24T02:31:52;114.70;;;45.40;;
50988;SDS011;37008;52.210;21.112;2023-01-24T02:34:25;107.88;;;43.58;;
50988;SDS011;37008;52.210;21.112;2023-01-24T02:36:53;106.00;;;42.15;;
50988;SDS011;37008;52.210;21.112;2023-01-24T02:39:23;120.72;;;44.67;;
50988;SDS011;37008;52.210;21.112;2023-01-24T02:42:05;108.03;;;42.92;;
50988;SDS011;37008;52.210;21.112;2023-01-24T02:44:43;102.53;;;40.90;;
50988;SDS011;37008;52.210;21.112;2023-01-24T02:47:13;100.10;;;41.63;;
50988;SDS011;37008;52.210;21.112;2023-01-24T02:49:38;93.18;;;40.92;;
50988;SDS011;37008;52.210;21.112;2023-01-24T02:52:04;107.38;;;43.60;;
50988;SDS011;37008;52.210;21.112;2023-01-24T02:54:50;106.75;;;41.63;;
50988;SDS011;37008;52.210;21.112;2023-01-24T02:57:16;103.47;;;41.90;;
50988;SDS011;37008;52.210;21.112;2023-01-24T03:00:00;88.18;;;38.35;;
50988;SDS011;37008;52.210;21.112;2023-01-24T03:02:26;103.35;;;42.72;;
50988;SDS011;37008;52.210;21.112;2023-01-24T03:04:51;94.25;;;39.78;;
50988;SDS011;37008;52.210;21.112;2023-01-24T03:07:17;90.07;;;37.53;;
50988;SDS011;37008;52.210;21.112;2023-01-24T03:09:42;90.63;;;38.88;;
50988;SDS011;37008;52.210;21.112;2023-01-24T03:12:14;93.28;;;40.58;;
50988;SDS011;37008;52.210;21.112;2023-01-24T03:14:58;96.78;;;38.90;;
50988;SDS011;37008;52.210;21.112;2023-01-24T03:17:43;94.00;;;38.47;;
50988;SDS011;37008;52.210;21.112;2023-01-24T03:20:27;87.68;;;36.90;;
50988;SDS011;37008;52.210;21.112;2023-01-24T03:23:12;88.35;;;38.47;;
50988;SDS011;37008;52.210;21.112;2023-01-24T03:25:56;101.00;;;39.97;;
50988;SDS011;37008;52.210;21.112;2023-01-24T03:28:41;82.10;;;37.97;;
50988;SDS011;37008;52.210;21.112;2023-01-24T03:31:25;78.80;;;38.38;;
50988;SDS011;37008;52.210;21.112;2023-01-24T03:34:10;90.20;;;39.88;;
50988;SDS011;37008;52.210;21.112;2023-01-24T03:36:55;91.22;;;37.70;;
50988;SDS011;37008;52.210;21.112;2023-01-24T03:39:20;82.10;;;37.50;;
50988;SDS011;37008;52.210;21.112;2023-01-24T03:42:04;88.25;;;36.35;;
50988;SDS011;37008;52.210;21.112;2023-01-24T03:44:30;84.20;;;37.15;;
50988;SDS011;37008;52.210;21.112;2023-01-24T03:46:56;90.35;;;38.00;;
50988;SDS011;37008;52.210;21.112;2023-01-24T03:49:21;85.93;;;37.80;;
50988;SDS011;37008;52.210;21.112;2023-01-24T03:52:05;80.50;;;37.08;;
50988;SDS011;37008;52.210;21.112;2023-01-24T03:54:49;90.65;;;37.33;;
50988;SDS011;37008;52.210;21.112;2023-01-24T03:57:15;89.53;;;38.05;;
50988;SDS011;37008;52.210;21.112;2023-01-24T03:59:40;83.25;;;37.97;;
50988;SDS011;37008;52.210;21.112;2023-01-24T04:02:06;85.70;;;37.67;;
50988;SDS011;37008;52.210;21.112;2023-01-24T04:04:31;93.25;;;39.55;;
50988;SDS011;37008;52.210;21.112;2023-01-24T04:07:17;81.32;;;38.53;;
50988;SDS011;37008;52.210;21.112;2023-01-24T04:09:43;87.97;;;40.40;;
50988;SDS011;37008;52.210;21.112;2023-01-24T04:12:09;85.72;;;38.55;;
50988;SDS011;37008;52.210;21.112;2023-01-24T04:14:34;81.65;;;36.97;;
50988;SDS011;37008;52.210;21.112;2023-01-24T04:17:00;75.63;;;37.58;;
50988;SDS011;37008;52.210;21.112;2023-01-24T04:19:25;85.22;;;37.58;;
50988;SDS011;37008;52.210;21.112;2023-01-24T04:21:51;88.05;;;38.45;;
50988;SDS011;37008;52.210;21.112;2023-01-24T04:24:17;77.80;;;36.35;;
50988;SDS011;37008;52.210;21.112;2023-01-24T04:26:42;78.88;;;35.75;;
50988;SDS011;37008;52.210;21.112;2023-01-24T04:29:08;78.88;;;37.97;;
50988;SDS011;37008;52.210;21.112;2023-01-24T04:31:34;79.80;;;36.20;;
50988;SDS011;37008;52.210;21.112;2023-01-24T04:33:59;86.28;;;35.15;;
50988;SDS011;37008;52.210;21.112;2023-01-24T04:36:25;85.22;;;36.42;;
50988;SDS011;37008;52.210;21.112;2023-01-24T04:38:51;85.60;;;37.83;;
50988;SDS011;37008;52.210;21.112;2023-01-24T04:41:16;83.18;;;37.45;;
50988;SDS011;37008;52.210;21.112;2023-01-24T04:43:42;80.15;;;36.05;;
50988;SDS011;37008;52.210;21.112;2023-01-24T04:46:08;82.53;;;35.20;;
50988;SDS011;37008;52.210;21.112;2023-01-24T04:48:33;77.93;;;35.50;;
50988;SDS011;37008;52.210;21.112;2023-01-24T04:50:59;84.35;;;35.90;;
50988;SDS011;37008;52.210;21.112;2023-01-24T04:53:26;80.93;;;35.33;;
50988;SDS011;37008;52.210;21.112;2023-01-24T04:55:53;79.95;;;36.25;;
50988;SDS011;37008;52.210;21.112;2023-01-24T04:58:19;76.22;;;35.05;;
50988;SDS011;37008;52.210;21.112;2023-01-24T05:00:45;78.25;;;35.22;;
50988;SDS011;37008;52.210;21.112;2023-01-24T05:03:12;71.20;;;34.95;;
50988;SDS011;37008;52.210;21.112;2023-01-24T05:05:38;74.45;;;34.55;;
50988;SDS011;37008;52.210;21.112;2023-01-24T05:08:03;73.47;;;33.95;;
50988;SDS011;37008;52.210;21.112;2023-01-24T05:10:29;80.07;;;35.38;;
50988;SDS011;37008;52.210;21.112;2023-01-24T05:12:55;72.45;;;34.60;;
50988;SDS011;37008;52.210;21.112;2023-01-24T05:15:20;71.40;;;34.28;;
50988;SDS011;37008;52.210;21.112;2023-01-24T05:17:48;76.78;;;37.35;;
50988;SDS011;37008;52.210;21.112;2023-01-24T05:20:13;77.88;;;33.97;;
50988;SDS011;37008;52.210;21.112;2023-01-24T05:22:39;76.47;;;33.95;;
50988;SDS011;37008;52.210;21.112;2023-01-24T05:25:05;75.93;;;35.58;;
50988;SDS011;37008;52.210;21.112;2023-01-24T05:27:31;75.45;;;35.03;;
50988;SDS011;37008;52.210;21.112;2023-01-24T05:29:57;78.75;;;36.88;;
50988;SDS011;37008;52.210;21.112;2023-01-24T05:32:22;69.45;;;34.20;;
50988;SDS011;37008;52.210;21.112;2023-01-24T05:34:48;73.05;;;35.58;;
50988;SDS011;37008;52.210;21.112;2023-01-24T05:37:13;74.72;;;34.75;;
50988;SDS011;37008;52.210;21.112;2023-01-24T05:39:39;70.85;;;34.70;;
50988;SDS011;37008;52.210;21.112;2023-01-24T05:42:05;73.88;;;34.80;;
50988;SDS011;37008;52.210;21.112;2023-01-24T05:44:30;69.25;;;33.55;;
50988;SDS011;37008;52.210;21.112;2023-01-24T05:46:56;71.57;;;34.28;;
50988;SDS011;37008;52.210;21.112;2023-01-24T05:49:21;70.78;;;33.45;;
50988;SDS011;37008;52.210;21.112;2023-01-24T05:51:47;74.40;;;36.15;;
50988;SDS011;37008;52.210;21.112;2023-01-24T05:54:12;69.68;;;33.65;;
50988;SDS011;37008;52.210;21.112;2023-01-24T05:56:38;65.53;;;33.47;;
50988;SDS011;37008;52.210;21.112;2023-01-24T05:59:04;71.32;;;33.95;;
50988;SDS011;37008;52.210;21.112;2023-01-24T06:01:29;69.32;;;33.70;;
50988;SDS011;37008;52.210;21.112;2023-01-24T06:03:55;67.47;;;32.58;;
50988;SDS011;37008;52.210;21.112;2023-01-24T06:06:21;70.50;;;33.88;;
50988;SDS011;37008;52.210;21.112;2023-01-24T06:08:48;70.80;;;33.92;;
50988;SDS011;37008;52.210;21.112;2023-01-24T06:11:15;63.90;;;33.42;;
50988;SDS011;37008;52.210;21.112;2023-01-24T06:13:45;67.15;;;34.00;;
50988;SDS011;37008;52.210;21.112;2023-01-24T06:16:15;75.32;;;35.03;;
50988;SDS011;37008;52.210;21.112;2023-01-24T06:18:45;73.90;;;33.75;;
50988;SDS011;37008;52.210;21.112;2023-01-24T06:21:55;69.78;;;33.45;;
50988;SDS011;37008;52.210;21.112;2023-01-24T06:24:18;69.00;;;33.10;;
50988;SDS011;37008;52.210;21.112;2023-01-24T06:26:44;66.07;;;32.53;;
50988;SDS011;37008;52.210;21.112;2023-01-24T06:29:11;73.88;;;33.03;;
50988;SDS011;37008;52.210;21.112;2023-01-24T06:34:24;66.95;;;31.42;;
50988;SDS011;37008;52.210;21.112;2023-01-24T06:39:48;64.35;;;32.65;;
50988;SDS011;37008;52.210;21.112;2023-01-24T06:42:19;66.97;;;32.95;;
50988;SDS011;37008;52.210;21.112;2023-01-24T06:44:46;69.50;;;32.92;;
50988;SDS011;37008;52.210;21.112;2023-01-24T06:47:12;60.13;;;31.88;;
50988;SDS011;37008;52.210;21.112;2023-01-24T06:49:39;68.18;;;33.03;;
50988;SDS011;37008;52.210;21.112;2023-01-24T06:52:05;66.78;;;32.20;;
50988;SDS011;37008;52.210;21.112;2023-01-24T06:54:32;70.82;;;31.10;;
50988;SDS011;37008;52.210;21.112;2023-01-24T06:56:59;66.13;;;30.70;;
50988;SDS011;37008;52.210;21.112;2023-01-24T06:59:25;67.30;;;31.48;;
50988;SDS011;37008;52.210;21.112;2023-01-24T07:01:50;64.22;;;32.42;;
50988;SDS011;37008;52.210;21.112;2023-01-24T07:04:16;68.63;;;32.88;;
50988;SDS011;37008;52.210;21.112;2023-01-24T07:06:42;68.00;;;32.88;;
50988;SDS011;37008;52.210;21.112;2023-01-24T07:09:07;77.57;;;32.70;;
50988;SDS011;37008;52.210;21.112;2023-01-24T07:11:33;66.07;;;34.10;;
50988;SDS011;37008;52.210;21.112;2023-01-24T07:13:59;64.40;;;32.00;;
50988;SDS011;37008;52.210;21.112;2023-01-24T07:16:25;69.78;;;31.83;;
50988;SDS011;37008;52.210;21.112;2023-01-24T07:18:50;69.78;;;32.50;;
50988;SDS011;37008;52.210;21.112;2023-01-24T07:21:16;65.50;;;31.42;;
50988;SDS011;37008;52.210;21.112;2023-01-24T07:23:43;66.82;;;31.40;;
50988;SDS011;37008;52.210;21.112;2023-01-24T07:26:10;67.35;;;32.92;;
50988;SDS011;37008;52.210;21.112;2023-01-24T07:28:36;66.72;;;33.75;;
50988;SDS011;37008;52.210;21.112;2023-01-24T07:31:03;64.68;;;32.58;;
50988;SDS011;37008;52.210;21.112;2023-01-24T07:33:29;64.55;;;31.48;;
50988;SDS011;37008;52.210;21.112;2023-01-24T07:35:54;65.90;;;32.20;;
50988;SDS011;37008;52.210;21.112;2023-01-24T07:38:20;63.25;;;31.05;;
50988;SDS011;37008;52.210;21.112;2023-01-24T07:40:46;61.15;;;31.33;;
50988;SDS011;37008;52.210;21.112;2023-01-24T07:43:12;71.85;;;32.85;;
50988;SDS011;37008;52.210;21.112;2023-01-24T07:45:38;57.88;;;32.47;;
50988;SDS011;37008;52.210;21.112;2023-01-24T07:48:04;61.33;;;31.20;;
50988;SDS011;37008;52.210;21.112;2023-01-24T07:50:31;58.75;;;30.65;;
50988;SDS011;37008;52.210;21.112;2023-01-24T07:52:58;62.33;;;32.53;;
50988;SDS011;37008;52.210;21.112;2023-01-24T07:55:24;64.00;;;32.20;;
50988;SDS011;37008;52.210;21.112;2023-01-24T07:57:50;66.05;;;31.77;;
50988;SDS011;37008;52.210;21.112;2023-01-24T08:00:15;56.70;;;30.73;;
50988;SDS011;37008;52.210;21.112;2023-01-24T08:02:42;60.85;;;31.38;;
50988;SDS011;37008;52.210;21.112;2023-01-24T08:05:09;62.47;;;31.33;;
50988;SDS011;37008;52.210;21.112;2023-01-24T08:07:35;58.28;;;29.85;;
50988;SDS011;37008;52.210;21.112;2023-01-24T08:10:01;53.55;;;28.23;;
50988;SDS011;37008;52.210;21.112;2023-01-24T08:12:27;56.10;;;29.83;;
50988;SDS011;37008;52.210;21.112;2023-01-24T08:14:53;53.10;;;28.25;;
50988;SDS011;37008;52.210;21.112;2023-01-24T08:17:18;51.25;;;28.20;;
50988;SDS011;37008;52.210;21.112;2023-01-24T08:19:44;59.63;;;30.70;;
50988;SDS011;37008;52.210;21.112;2023-01-24T08:22:10;49.35;;;26.65;;
50988;SDS011;37008;52.210;21.112;2023-01-24T08:24:35;50.10;;;27.33;;
50988;SDS011;37008;52.210;21.112;2023-01-24T08:27:01;54.75;;;31.02;;
50988;SDS011;37008;52.210;21.112;2023-01-24T08:29:28;55.33;;;28.10;;
50988;SDS011;37008;52.210;21.112;2023-01-24T08:31:54;62.67;;;31.90;;
50988;SDS011;37008;52.210;21.112;2023-01-24T08:34:20;68.85;;;32.83;;
50988;SDS011;37008;52.210;21.112;2023-01-24T08:36:46;64.13;;;32.40;;
50988;SDS011;37008;52.210;21.112;2023-01-24T08:39:11;61.03;;;32.45;;
50988;SDS011;37008;52.210;21.112;2023-01-24T08:41:37;66.32;;;33.28;;
50988;SDS011;37008;52.210;21.112;2023-01-24T08:44:03;63.63;;;33.25;;
50988;SDS011;37008;52.210;21.112;2023-01-24T08:46:30;52.60;;;30.75;;
50988;SDS011;37008;52.210;21.112;2023-01-24T08:48:56;55.42;;;31.27;;
50988;SDS011;37008;52.210;21.112;2023-01-24T08:51:23;57.70;;;29.83;;
50988;SDS011;37008;52.210;21.112;2023-01-24T08:53:49;54.60;;;29.75;;
50988;SDS011;37008;52.210;21.112;2023-01-24T08:56:15;44.53;;;28.27;;
50988;SDS011;37008;52.210;21.112;2023-01-24T08:58:40;51.30;;;29.60;;
50988;SDS011;37008;52.210;21.112;2023-01-24T09:01:07;49.53;;;27.75;;
50988;SDS011;37008;52.210;21.112;2023-01-24T09:03:35;46.00;;;27.38;;
50988;SDS011;37008;52.210;21.112;2023-01-24T09:06:01;52.78;;;28.27;;
50988;SDS011;37008;52.210;21.112;2023-01-24T09:08:27;49.63;;;26.20;;
50988;SDS011;37008;52.210;21.112;2023-01-24T09:10:53;46.17;;;27.65;;
50988;SDS011;37008;52.210;21.112;2023-01-24T09:13:21;47.83;;;28.27;;
50988;SDS011;37008;52.210;21.112;2023-01-24T09:15:47;50.70;;;28.35;;
50988;SDS011;37008;52.210;21.112;2023-01-24T09:18:12;55.03;;;29.80;;
50988;SDS011;37008;52.210;21.112;2023-01-24T09:20:38;54.50;;;30.50;;
50988;SDS011;37008;52.210;21.112;2023-01-24T09:23:07;51.85;;;28.98;;
50988;SDS011;37008;52.210;21.112;2023-01-24T09:25:34;49.30;;;27.13;;
50988;SDS011;37008;52.210;21.112;2023-01-24T09:28:00;50.60;;;28.00;;
50988;SDS011;37008;52.210;21.112;2023-01-24T09:30:25;53.33;;;30.10;;
50988;SDS011;37008;52.210;21.112;2023-01-24T09:32:51;54.33;;;30.48;;
50988;SDS011;37008;52.210;21.112;2023-01-24T09:35:16;57.03;;;31.10;;
50988;SDS011;37008;52.210;21.112;2023-01-24T09:37:42;58.88;;;32.40;;
50988;SDS011;37008;52.210;21.112;2023-01-24T09:40:20;59.70;;;34.75;;
50988;SDS011;37008;52.210;21.112;2023-01-24T09:43:04;55.85;;;32.85;;
50988;SDS011;37008;52.210;21.112;2023-01-24T09:45:37;54.97;;;32.38;;
50988;SDS011;37008;52.210;21.112;2023-01-24T09:48:10;57.80;;;32.65;;
50988;SDS011;37008;52.210;21.112;2023-01-24T09:53:05;61.50;;;35.05;;
50988;SDS011;37008;52.210;21.112;2023-01-24T09:55:40;61.10;;;34.90;;
50988;SDS011;37008;52.210;21.112;2023-01-24T09:58:14;60.08;;;33.70;;
50988;SDS011;37008;52.210;21.112;2023-01-24T10:00:54;57.08;;;33.00;;
50988;SDS011;37008;52.210;21.112;2023-01-24T10:03:23;57.05;;;31.58;;
50988;SDS011;37008;52.210;21.112;2023-01-24T10:05:51;62.53;;;32.20;;
50988;SDS011;37008;52.210;21.112;2023-01-24T10:11:15;53.22;;;30.08;;
50988;SDS011;37008;52.210;21.112;2023-01-24T10:19:14;64.63;;;36.08;;
50988;SDS011;37008;52.210;21.112;2023-01-24T10:25:31;66.13;;;36.65;;
50988;SDS011;37008;52.210;21.112;2023-01-24T10:27:55;72.30;;;39.40;;
50988;SDS011;37008;52.210;21.112;2023-01-24T10:30:34;74.10;;;39.65;;
50988;SDS011;37008;52.210;21.112;2023-01-24T10:33:15;73.38;;;39.08;;
50988;SDS011;37008;52.210;21.112;2023-01-24T10:35:56;67.90;;;38.83;;
50988;SDS011;37008;52.210;21.112;2023-01-24T10:38:29;66.43;;;36.35;;
50988;SDS011;37008;52.210;21.112;2023-01-24T10:40:55;60.25;;;34.38;;
50988;SDS011;37008;52.210;21.112;2023-01-24T10:43:27;58.05;;;32.63;;
50988;SDS011;37008;52.210;21.112;2023-01-24T10:48:45;57.42;;;33.13;;
50988;SDS011;37008;52.210;21.112;2023-01-24T10:51:15;56.35;;;32.35;;
50988;SDS011;37008;52.210;21.112;2023-01-24T10:53:45;52.17;;;33.03;;
50988;SDS011;37008;52.210;21.112;2023-01-24T10:56:12;53.95;;;32.50;;
50988;SDS011;37008;52.210;21.112;2023-01-24T10:58:40;54.45;;;32.00;;
50988;SDS011;37008;52.210;21.112;2023-01-24T11:01:16;59.35;;;32.97;;
50988;SDS011;37008;52.210;21.112;2023-01-24T11:03:44;53.92;;;30.90;;
50988;SDS011;37008;52.210;21.112;2023-01-24T11:06:24;54.63;;;33.50;;
50988;SDS011;37008;52.210;21.112;2023-01-24T11:09:02;59.97;;;33.67;;
50988;SDS011;37008;52.210;21.112;2023-01-24T11:11:29;56.08;;;34.25;;
50988;SDS011;37008;52.210;21.112;2023-01-24T11:13:58;58.42;;;34.33;;
50988;SDS011;37008;52.210;21.112;2023-01-24T11:17:07;57.17;;;32.42;;
50988;SDS011;37008;52.210;21.112;2023-01-24T11:19:23;62.45;;;33.72;;
50988;SDS011;37008;52.210;21.112;2023-01-24T11:21:53;61.83;;;33.35;;
50988;SDS011;37008;52.210;21.112;2023-01-24T11:24:21;62.53;;;34.42;;
50988;SDS011;37008;52.210;21.112;2023-01-24T11:26:58;62.92;;;34.53;;
50988;SDS011;37008;52.210;21.112;2023-01-24T11:29:37;72.30;;;35.25;;
50988;SDS011;37008;52.210;21.112;2023-01-24T11:32:18;67.75;;;35.40;;
50988;SDS011;37008;52.210;21.112;2023-01-24T11:37:41;63.13;;;34.58;;
50988;SDS011;37008;52.210;21.112;2023-01-24T11:46:05;61.97;;;35.00;;
50988;SDS011;37008;52.210;21.112;2023-01-24T11:51:14;60.92;;;32.97;;
50988;SDS011;37008;52.210;21.112;2023-01-24T11:56:47;63.92;;;33.58;;
50988;SDS011;37008;52.210;21.112;2023-01-24T12:12:35;55.15;;;29.65;;
50988;SDS011;37008;52.210;21.112;2023-01-24T12:18:14;51.72;;;27.73;;
50988;SDS011;37008;52.210;21.112;2023-01-24T12:26:24;51.08;;;28.80;;
50988;SDS011;37008;52.210;21.112;2023-01-24T12:31:30;49.40;;;26.90;;
50988;SDS011;37008;52.210;21.112;2023-01-24T12:34:27;53.92;;;29.35;;
50988;SDS011;37008;52.210;21.112;2023-01-24T12:37:20;53.13;;;27.90;;
50988;SDS011;37008;52.210;21.112;2023-01-24T12:39:54;54.92;;;30.08;;
50988;SDS011;37008;52.210;21.112;2023-01-24T12:43:12;56.60;;;29.48;;
50988;SDS011;37008;52.210;21.112;2023-01-24T12:48:46;55.28;;;28.73;;
50988;SDS011;37008;52.210;21.112;2023-01-24T12:53:52;52.05;;;28.20;;
50988;SDS011;37008;52.210;21.112;2023-01-24T12:59:21;53.22;;;29.00;;
50988;SDS011;37008;52.210;21.112;2023-01-24T13:05:02;54.90;;;30.08;;
50988;SDS011;37008;52.210;21.112;2023-01-24T13:12:41;64.13;;;31.97;;
50988;SDS011;37008;52.210;21.112;2023-01-24T13:15:23;66.32;;;30.52;;
50988;SDS011;37008;52.210;21.112;2023-01-24T13:25:54;55.45;;;29.92;;
50988;SDS011;37008;52.210;21.112;2023-01-24T13:28:49;53.33;;;27.63;;
50988;SDS011;37008;52.210;21.112;2023-01-24T13:31:37;55.40;;;29.38;;
50988;SDS011;37008;52.210;21.112;2023-01-24T13:34:19;55.70;;;29.55;;
50988;SDS011;37008;52.210;21.112;2023-01-24T13:36:48;54.30;;;28.42;;
50988;SDS011;37008;52.210;21.112;2023-01-24T13:42:04;59.60;;;29.65;;
50988;SDS011;37008;52.210;21.112;2023-01-24T13:44:42;55.70;;;30.38;;
50988;SDS011;37008;52.210;21.112;2023-01-24T13:49:37;58.70;;;29.67;;
50988;SDS011;37008;52.210;21.112;2023-01-24T13:55:08;57.47;;;29.17;;
50988;SDS011;37008;52.210;21.112;2023-01-24T14:00:33;58.25;;;29.20;;
50988;SDS011;37008;52.210;21.112;2023-01-24T14:08:41;57.92;;;32.42;;
50988;SDS011;37008;52.210;21.112;2023-01-24T14:13:59;54.17;;;29.08;;
50988;SDS011;37008;52.210;21.112;2023-01-24T14:19:35;58.22;;;30.02;;
50988;SDS011;37008;52.210;21.112;2023-01-24T14:21:57;54.90;;;30.77;;
50988;SDS011;37008;52.210;21.112;2023-01-24T14:24:31;52.65;;;27.92;;
50988;SDS011;37008;52.210;21.112;2023-01-24T14:27:29;52.80;;;29.98;;
50988;SDS011;37008;52.210;21.112;2023-01-24T14:30:46;54.30;;;29.50;;
50988;SDS011;37008;52.210;21.112;2023-01-24T14:32:57;52.08;;;28.48;;
50988;SDS011;37008;52.210;21.112;2023-01-24T14:35:51;52.53;;;29.20;;
50988;SDS011;37008;52.210;21.112;2023-01-24T14:38:37;57.78;;;28.90;;
50988;SDS011;37008;52.210;21.112;2023-01-24T14:41:10;50.35;;;29.83;;
50988;SDS011;37008;52.210;21.112;2023-01-24T14:43:45;52.17;;;28.23;;
50988;SDS011;37008;52.210;21.112;2023-01-24T14:46:12;51.15;;;28.05;;
50988;SDS011;37008;52.210;21.112;2023-01-24T14:48:42;47.53;;;28.08;;
50988;SDS011;37008;52.210;21.112;2023-01-24T14:51:14;47.33;;;28.27;;
50988;SDS011;37008;52.210;21.112;2023-01-24T14:53:47;54.75;;;29.63;;
50988;SDS011;37008;52.210;21.112;2023-01-24T14:56:14;54.15;;;30.00;;
50988;SDS011;37008;52.210;21.112;2023-01-24T14:58:48;56.30;;;29.58;;
50988;SDS011;37008;52.210;21.112;2023-01-24T15:01:21;58.25;;;29.02;;
50988;SDS011;37008;52.210;21.112;2023-01-24T15:03:59;50.20;;;27.40;;
50988;SDS011;37008;52.210;21.112;2023-01-24T15:06:26;55.03;;;29.33;;
50988;SDS011;37008;52.210;21.112;2023-01-24T15:08:54;54.88;;;29.52;;
50988;SDS011;37008;52.210;21.112;2023-01-24T15:11:24;45.97;;;27.20;;
50988;SDS011;37008;52.210;21.112;2023-01-24T15:13:58;49.08;;;28.05;;
50988;SDS011;37008;52.210;21.112;2023-01-24T15:16:45;50.25;;;27.92;;
50988;SDS011;37008;52.210;21.112;2023-01-24T15:19:23;44.03;;;24.80;;
50988;SDS011;37008;52.210;21.112;2023-01-24T15:21:50;47.42;;;27.52;;
50988;SDS011;37008;52.210;21.112;2023-01-24T15:24:25;47.80;;;27.65;;
50988;SDS011;37008;52.210;21.112;2023-01-24T15:26:52;47.72;;;27.63;;
50988;SDS011;37008;52.210;21.112;2023-01-24T15:40:31;58.90;;;31.90;;
50988;SDS011;37008;52.210;21.112;2023-01-24T15:43:02;55.17;;;31.35;;
50988;SDS011;37008;52.210;21.112;2023-01-24T15:45:53;60.53;;;31.90;;
50988;SDS011;37008;52.210;21.112;2023-01-24T15:48:54;56.35;;;31.67;;
50988;SDS011;37008;52.210;21.112;2023-01-24T15:51:35;58.67;;;30.73;;
50988;SDS011;37008;52.210;21.112;2023-01-24T15:54:07;57.88;;;31.25;;
50988;SDS011;37008;52.210;21.112;2023-01-24T15:56:37;56.42;;;31.00;;
50988;SDS011;37008;52.210;21.112;2023-01-24T15:59:17;53.35;;;30.05;;
50988;SDS011;37008;52.210;21.112;2023-01-24T16:01:45;57.83;;;31.33;;
50988;SDS011;37008;52.210;21.112;2023-01-24T16:04:12;56.70;;;30.38;;
50988;SDS011;37008;52.210;21.112;2023-01-24T16:06:39;60.55;;;32.03;;
50988;SDS011;37008;52.210;21.112;2023-01-24T16:09:04;55.70;;;32.10;;
50988;SDS011;37008;52.210;21.112;2023-01-24T16:11:31;60.08;;;31.85;;
50988;SDS011;37008;52.210;21.112;2023-01-24T16:13:57;56.00;;;30.60;;
50988;SDS011;37008;52.210;21.112;2023-01-24T16:16:23;56.17;;;31.17;;
50988;SDS011;37008;52.210;21.112;2023-01-24T16:18:49;53.92;;;31.75;;
50988;SDS011;37008;52.210;21.112;2023-01-24T16:21:15;60.97;;;33.97;;
50988;SDS011;37008;52.210;21.112;2023-01-24T16:23:41;50.05;;;30.40;;
50988;SDS011;37008;52.210;21.112;2023-01-24T16:26:07;56.20;;;31.25;;
50988;SDS011;37008;52.210;21.112;2023-01-24T16:28:47;51.50;;;29.75;;